Time;durP1;ratioP1;P1;durP2;ratioP2;P2;SDS_P1;SDS_P2;PMS_P1;PMS_P2;Temp;Humidity;BMP_temperature;BMP_pressure;BME280_temperature;BME280_humidity;BME280_pressure;Samples;Min_cycle;Max_cycle;Signal;HPM_P1;HPM_P2
2022/01/28 06:00:34;;;;;;;7.40;6.43;;;4.40;97.20;;;;;;1707765;29;20189;-71
2022/01/28 06:01:25;;;;;;;7.90;6.95;;;4.40;97.20;;;;;;1707258;29;20203;-72
2022/01/28 06:02:18;;;;;;;7.97;6.80;;;4.40;97.20;;;;;;1707513;29;20199;-72
2022/01/28 06:03:09;;;;;;;7.78;6.22;;;4.40;97.20;;;;;;1707691;29;20586;-72
2022/01/28 06:04:01;;;;;;;7.10;6.40;;;4.40;97.20;;;;;;1707531;29;20234;-71
2022/01/28 06:04:52;;;;;;;11.63;6.75;;;4.40;97.20;;;;;;1707693;29;20242;-72
2022/01/28 06:05:45;;;;;;;8.37;6.77;;;4.40;97.20;;;;;;1706868;28;20194;-72
2022/01/28 06:06:35;;;;;;;8.88;6.47;;;4.40;97.20;;;;;;1707675;29;20462;-73
2022/01/28 06:07:27;;;;;;;7.80;6.57;;;4.40;97.20;;;;;;1707538;29;20230;-72
2022/01/28 06:08:18;;;;;;;7.50;6.68;;;4.40;97.20;;;;;;1707243;29;20267;-72
2022/01/28 06:09:10;;;;;;;8.00;6.23;;;4.40;97.20;;;;;;1707454;29;20202;-72
2022/01/28 06:10:00;;;;;;;8.52;6.35;;;4.40;97.20;;;;;;1707622;29;20209;-72
2022/01/28 06:10:52;;;;;;;6.40;5.70;;;4.40;97.20;;;;;;1707612;28;20285;-72
2022/01/28 06:11:45;;;;;;;8.35;6.28;;;4.40;97.20;;;;;;1707431;29;20203;-72
2022/01/28 06:12:41;;;;;;;9.27;6.50;;;4.40;97.20;;;;;;1707636;29;20447;-72
2022/01/28 06:13:32;;;;;;;9.18;6.38;;;4.40;97.20;;;;;;1707564;28;20210;-73
2022/01/28 06:14:23;;;;;;;8.00;5.87;;;4.40;97.20;;;;;;1707729;28;20242;-72
2022/01/28 06:15:14;;;;;;;6.97;6.20;;;4.40;97.20;;;;;;1707524;29;20249;-72
2022/01/28 06:16:07;;;;;;;7.67;6.20;;;4.40;97.20;;;;;;1707424;29;20237;-72
2022/01/28 06:16:58;;;;;;;8.23;7.22;;;4.40;97.20;;;;;;1707622;29;20238;-73
2022/01/28 06:17:50;;;;;;;7.43;6.22;;;4.40;97.20;;;;;;1707320;29;20297;-73
2022/01/28 06:18:41;;;;;;;11.07;6.40;;;4.40;97.20;;;;;;1707205;29;20198;-72
2022/01/28 06:19:33;;;;;;;7.10;6.28;;;4.40;97.20;;;;;;1707112;28;20198;-72
2022/01/28 06:20:24;;;;;;;7.63;6.43;;;4.40;97.20;;;;;;1707296;29;20335;-72
2022/01/28 06:21:16;;;;;;;9.10;6.80;;;4.40;97.20;;;;;;1707587;28;20202;-72
2022/01/28 06:22:06;;;;;;;8.93;6.90;;;4.40;97.20;;;;;;1707517;29;20245;-72
2022/01/28 06:22:58;;;;;;;6.83;6.00;;;4.40;97.20;;;;;;1707462;29;20210;-72
2022/01/28 06:23:51;;;;;;;9.13;6.00;;;4.40;97.20;;;;;;1707493;29;20202;-72
2022/01/28 06:24:43;;;;;;;7.30;5.82;;;4.40;97.20;;;;;;1707625;29;20563;-71
2022/01/28 06:25:34;;;;;;;6.45;5.85;;;4.40;97.20;;;;;;1707505;29;20209;-71
2022/01/28 06:26:26;;;;;;;7.13;6.30;;;4.40;97.20;;;;;;1707468;28;20226;-71
2022/01/28 06:27:16;;;;;;;8.52;6.65;;;4.40;97.20;;;;;;1707433;29;20482;-71
2022/01/28 06:28:08;;;;;;;7.87;6.37;;;4.40;97.20;;;;;;1703464;29;20220;-71
2022/01/28 06:28:59;;;;;;;7.00;6.32;;;4.40;97.20;;;;;;1703353;28;20207;-71
2022/01/28 06:29:51;;;;;;;7.53;6.77;;;4.40;97.20;;;;;;1707389;28;20207;-71
2022/01/28 06:30:41;;;;;;;10.32;5.97;;;4.40;97.20;;;;;;1706930;28;20206;-71
2022/01/28 06:31:35;;;;;;;7.50;6.03;;;4.40;97.20;;;;;;1707051;28;20468;-71
2022/01/28 06:32:25;;;;;;;7.55;6.05;;;4.40;97.20;;;;;;1707309;29;20225;-72
2022/01/28 06:33:17;;;;;;;8.20;6.47;;;4.40;97.20;;;;;;1707515;29;20213;-71
2022/01/28 06:34:08;;;;;;;6.90;6.20;;;4.40;97.20;;;;;;1707435;29;20297;-71
2022/01/28 06:35:01;;;;;;;8.80;6.23;;;4.40;97.20;;;;;;1707524;29;20334;-71
2022/01/28 06:35:52;;;;;;;6.78;6.15;;;4.40;97.20;;;;;;1707270;28;20450;-71
2022/01/28 06:36:44;;;;;;;7.63;6.20;;;4.30;97.20;;;;;;1707423;29;20227;-72
2022/01/28 06:37:37;;;;;;;7.55;6.15;;;4.30;97.20;;;;;;1707021;28;20207;-71
2022/01/28 06:38:28;;;;;;;8.80;6.18;;;4.30;97.20;;;;;;1707444;29;20237;-71
2022/01/28 06:39:19;;;;;;;12.48;8.25;;;4.30;97.20;;;;;;1707508;29;20676;-72
2022/01/28 06:40:13;;;;;;;12.70;11.40;;;4.30;97.20;;;;;;1707332;29;20230;-71
2022/01/28 06:41:04;;;;;;;18.55;14.75;;;4.30;97.20;;;;;;1707506;28;20261;-71
2022/01/28 06:41:55;;;;;;;13.40;11.70;;;4.30;97.20;;;;;;1707494;29;20202;-77
2022/01/28 06:42:47;;;;;;;13.40;11.57;;;4.30;97.20;;;;;;1707434;29;20226;-73
2022/01/28 06:43:38;;;;;;;12.52;9.35;;;4.30;97.20;;;;;;1707447;29;20257;-71
2022/01/28 06:44:30;;;;;;;12.45;10.10;;;4.30;97.20;;;;;;1707201;29;20237;-72
2022/01/28 06:45:22;;;;;;;11.07;9.35;;;4.30;97.20;;;;;;1707478;29;20634;-72
2022/01/28 06:46:12;;;;;;;9.45;8.45;;;4.30;97.20;;;;;;1707298;28;20222;-72
2022/01/28 06:47:10;;;;;;;10.10;7.80;;;4.30;97.20;;;;;;1707468;29;20206;-73
2022/01/28 06:48:01;;;;;;;9.68;8.48;;;4.30;97.20;;;;;;1707185;29;20214;-72
2022/01/28 06:48:52;;;;;;;9.70;7.93;;;4.30;97.20;;;;;;1707303;29;20232;-72
2022/01/28 06:49:43;;;;;;;9.85;8.38;;;4.30;97.20;;;;;;1707447;29;20214;-72
2022/01/28 06:50:35;;;;;;;10.50;9.20;;;4.30;97.20;;;;;;1707394;29;20285;-73
2022/01/28 06:51:26;;;;;;;9.15;7.32;;;4.30;97.20;;;;;;1707379;29;20690;-73
2022/01/28 06:52:17;;;;;;;7.57;6.80;;;4.30;97.20;;;;;;1707408;29;20573;-73
2022/01/28 06:53:10;;;;;;;8.70;7.10;;;4.30;97.20;;;;;;1707426;29;20209;-72
2022/01/28 06:54:02;;;;;;;9.00;6.97;;;4.20;97.20;;;;;;1707534;29;20209;-73
2022/01/28 06:54:53;;;;;;;9.60;6.97;;;4.20;97.20;;;;;;1707356;29;20261;-73
2022/01/28 06:55:44;;;;;;;8.43;7.27;;;4.20;97.20;;;;;;1707376;28;20210;-72
2022/01/28 06:56:35;;;;;;;7.45;6.28;;;4.20;97.20;;;;;;1707363;29;20229;-73
2022/01/28 06:57:27;;;;;;;7.43;6.63;;;4.20;97.20;;;;;;1707434;29;20285;-72
2022/01/28 06:58:18;;;;;;;11.82;7.22;;;4.20;97.20;;;;;;1707060;29;20210;-73
2022/01/28 06:59:11;;;;;;;10.30;7.80;;;4.20;97.20;;;;;;1707350;29;20198;-72
2022/01/28 07:00:04;;;;;;;9.90;8.23;;;4.10;97.20;;;;;;1707107;29;20286;-73
2022/01/28 07:00:56;;;;;;;8.10;7.30;;;4.10;97.20;;;;;;1700745;29;20234;-72
2022/01/28 07:01:47;;;;;;;9.40;6.60;;;4.10;97.20;;;;;;1700812;29;20267;-73
2022/01/28 07:02:40;;;;;;;7.30;6.43;;;4.10;97.20;;;;;;1700803;29;20199;-72
2022/01/28 07:03:31;;;;;;;8.25;6.45;;;4.10;97.20;;;;;;1700777;29;20234;-72
2022/01/28 07:04:22;;;;;;;7.87;6.50;;;4.10;97.20;;;;;;1704365;29;20199;-72
2022/01/28 07:05:13;;;;;;;13.02;8.20;;;4.10;97.20;;;;;;1707231;29;20210;-73
2022/01/28 07:06:05;;;;;;;7.87;6.93;;;4.00;97.20;;;;;;1707378;28;20218;-72
2022/01/28 07:06:55;;;;;;;11.88;6.80;;;4.00;97.20;;;;;;1707341;29;20209;-72
2022/01/28 07:07:47;;;;;;;8.77;7.53;;;4.00;97.20;;;;;;1707122;28;20204;-73
2022/01/28 07:08:38;;;;;;;8.15;6.55;;;4.00;97.20;;;;;;1706739;29;20520;-72
2022/01/28 07:09:30;;;;;;;9.20;6.87;;;4.00;97.20;;;;;;1707292;29;20281;-73
2022/01/28 07:10:20;;;;;;;8.23;6.55;;;4.00;97.20;;;;;;1707305;29;20202;-73
2022/01/28 07:11:12;;;;;;;7.40;6.10;;;4.00;97.20;;;;;;1707254;29;20292;-73
2022/01/28 07:12:04;;;;;;;7.45;6.68;;;4.00;97.20;;;;;;1707309;29;20245;-72
2022/01/28 07:12:56;;;;;;;7.45;6.65;;;4.00;97.20;;;;;;1707265;28;20221;-73
2022/01/28 07:13:47;;;;;;;9.00;7.22;;;4.00;97.20;;;;;;1707339;29;20289;-72
2022/01/28 07:14:39;;;;;;;10.43;6.93;;;4.00;97.20;;;;;;1707363;29;20210;-73
2022/01/28 07:15:30;;;;;;;9.05;7.50;;;3.90;97.20;;;;;;1707367;28;20241;-72
2022/01/28 07:16:22;;;;;;;7.88;7.18;;;3.90;97.20;;;;;;1706731;28;20773;-73
2022/01/28 07:17:12;;;;;;;7.47;6.47;;;3.90;97.20;;;;;;1707267;29;20221;-72
2022/01/28 07:18:06;;;;;;;7.83;6.93;;;3.90;97.20;;;;;;1707025;29;20211;-73
2022/01/28 07:18:56;;;;;;;8.80;7.90;;;3.90;97.20;;;;;;1707209;29;20579;-73
2022/01/28 07:19:48;;;;;;;11.80;7.23;;;3.90;97.20;;;;;;1707244;29;20645;-73
2022/01/28 07:20:39;;;;;;;8.20;7.15;;;3.90;97.20;;;;;;1707213;29;20222;-72
2022/01/28 07:21:30;;;;;;;9.37;8.10;;;3.90;97.20;;;;;;1707299;29;20215;-72
2022/01/28 07:22:21;;;;;;;10.07;7.43;;;3.90;97.20;;;;;;1707277;29;20213;-73
2022/01/28 07:23:13;;;;;;;11.07;8.27;;;3.90;97.20;;;;;;1707231;29;20676;-73
2022/01/28 07:24:04;;;;;;;9.18;7.72;;;3.90;97.20;;;;;;1707278;29;20249;-73
2022/01/28 07:24:56;;;;;;;10.68;7.68;;;3.90;97.20;;;;;;1707240;29;20202;-72
2022/01/28 07:25:47;;;;;;;8.23;7.00;;;3.90;97.20;;;;;;1707207;28;20202;-73
2022/01/28 07:26:38;;;;;;;8.70;7.47;;;3.90;97.20;;;;;;1707256;29;20198;-72
2022/01/28 07:27:29;;;;;;;9.43;7.55;;;3.90;97.20;;;;;;1707290;29;20206;-72
2022/01/28 07:28:23;;;;;;;8.67;7.07;;;3.90;97.20;;;;;;1706890;29;20680;-73
2022/01/28 07:29:14;;;;;;;9.30;7.40;;;3.90;97.20;;;;;;1707131;29;20211;-72
2022/01/28 07:30:07;;;;;;;11.43;7.68;;;3.90;97.20;;;;;;1707085;29;20291;-73
2022/01/28 07:30:58;;;;;;;12.55;8.15;;;3.90;97.20;;;;;;1700971;29;20250;-72
2022/01/28 07:31:50;;;;;;;8.70;7.80;;;3.90;97.20;;;;;;1702017;29;20198;-72
2022/01/28 07:32:41;;;;;;;10.88;7.78;;;3.90;97.20;;;;;;1702020;29;20203;-73
2022/01/28 07:33:34;;;;;;;8.23;7.53;;;4.00;97.20;;;;;;1702042;29;20294;-73
2022/01/28 07:34:25;;;;;;;10.05;8.02;;;4.00;97.20;;;;;;1701957;29;20214;-73
2022/01/28 07:35:16;;;;;;;8.40;7.50;;;4.00;97.20;;;;;;1702063;29;20206;-73
2022/01/28 07:36:07;;;;;;;10.07;7.93;;;4.00;97.20;;;;;;1701833;29;20538;-72
2022/01/28 07:36:59;;;;;;;10.90;7.90;;;4.00;97.20;;;;;;1702081;29;20199;-73
2022/01/28 07:37:50;;;;;;;8.93;7.70;;;4.10;97.20;;;;;;1701687;29;20211;-73
2022/01/28 07:38:41;;;;;;;11.07;8.13;;;4.10;97.20;;;;;;1701908;29;20195;-73
2022/01/28 07:39:32;;;;;;;11.52;9.05;;;4.10;97.20;;;;;;1701942;29;20214;-73
2022/01/28 07:40:24;;;;;;;9.60;8.70;;;4.10;97.20;;;;;;1701942;29;20297;-73
2022/01/28 07:41:15;;;;;;;10.35;9.30;;;4.10;97.20;;;;;;1702005;29;20241;-72
2022/01/28 07:42:07;;;;;;;13.67;9.57;;;4.20;97.20;;;;;;1701965;29;20211;-73
2022/01/28 07:42:58;;;;;;;10.90;8.85;;;4.20;97.20;;;;;;1701959;29;20249;-73
2022/01/28 07:43:50;;;;;;;11.30;8.90;;;4.20;97.20;;;;;;1703136;29;20199;-73
2022/01/28 07:44:41;;;;;;;10.60;8.73;;;4.20;97.20;;;;;;1708562;29;20198;-73
2022/01/28 07:45:32;;;;;;;9.30;8.40;;;4.20;97.20;;;;;;1708594;29;20228;-72
2022/01/28 07:46:23;;;;;;;8.77;7.70;;;4.20;97.20;;;;;;1708571;29;20309;-72
2022/01/28 07:47:15;;;;;;;10.47;8.27;;;4.20;97.20;;;;;;1708519;29;20206;-73
2022/01/28 07:48:05;;;;;;;8.70;7.80;;;4.20;97.20;;;;;;1708138;29;20206;-73
2022/01/28 07:48:59;;;;;;;10.87;8.20;;;4.20;97.20;;;;;;1708471;28;20204;-73
2022/01/28 07:49:49;;;;;;;7.85;7.05;;;4.20;97.20;;;;;;1708459;29;20674;-73
2022/01/28 07:50:41;;;;;;;9.53;7.40;;;4.30;97.20;;;;;;1708507;29;20536;-73
2022/01/28 07:51:32;;;;;;;9.15;7.55;;;4.30;97.20;;;;;;1708545;29;20230;-72
2022/01/28 07:52:24;;;;;;;9.60;7.45;;;4.30;97.20;;;;;;1708581;29;20199;-73
2022/01/28 07:53:16;;;;;;;10.23;7.22;;;4.30;97.20;;;;;;1708461;29;20640;-73
2022/01/28 07:54:09;;;;;;;11.63;8.25;;;4.30;97.20;;;;;;1708543;29;20241;-72
2022/01/28 07:55:00;;;;;;;8.60;7.10;;;4.40;97.20;;;;;;1708502;28;20241;-72
2022/01/28 07:55:51;;;;;;;9.57;6.83;;;4.40;97.20;;;;;;1708466;29;20198;-72
2022/01/28 07:56:43;;;;;;;11.57;7.85;;;4.40;97.20;;;;;;1708512;29;20205;-72
2022/01/28 07:57:35;;;;;;;12.27;7.10;;;4.40;97.20;;;;;;1708192;29;20203;-73
2022/01/28 07:58:26;;;;;;;10.15;7.65;;;4.40;97.20;;;;;;1708525;28;20218;-73
2022/01/28 07:59:18;;;;;;;13.60;7.73;;;4.40;97.20;;;;;;1708352;29;20215;-73
2022/01/28 08:00:11;;;;;;;8.82;7.20;;;4.40;97.20;;;;;;1708132;29;20450;-73
2022/01/28 08:01:02;;;;;;;10.95;7.53;;;4.50;97.20;;;;;;1708418;29;20262;-73
2022/01/28 08:01:54;;;;;;;8.77;7.10;;;4.50;97.20;;;;;;1708410;29;20205;-73
2022/01/28 08:02:45;;;;;;;9.70;6.65;;;4.50;97.20;;;;;;1708439;29;20908;-73
2022/01/28 08:03:36;;;;;;;8.30;7.50;;;4.50;97.20;;;;;;1708474;29;20233;-73
2022/01/28 08:04:28;;;;;;;8.30;7.20;;;4.50;97.20;;;;;;1708427;29;20240;-73
2022/01/28 08:05:20;;;;;;;7.57;6.65;;;4.50;97.20;;;;;;1708561;28;20211;-73
2022/01/28 08:06:11;;;;;;;10.35;8.00;;;4.50;97.20;;;;;;1708333;28;20611;-72
2022/01/28 08:07:03;;;;;;;8.60;6.90;;;4.50;97.20;;;;;;1708490;29;20233;-73
2022/01/28 08:07:54;;;;;;;9.40;7.15;;;4.50;97.20;;;;;;1708113;29;20247;-72
2022/01/28 08:08:45;;;;;;;10.30;7.20;;;4.50;97.20;;;;;;1708263;29;20209;-72
2022/01/28 08:09:36;;;;;;;8.68;7.15;;;4.50;97.20;;;;;;1708350;29;20218;-72
2022/01/28 08:10:28;;;;;;;8.13;6.80;;;4.50;97.20;;;;;;1708424;28;20198;-73
2022/01/28 08:11:18;;;;;;;9.40;7.65;;;4.50;97.20;;;;;;1708443;29;20289;-73
2022/01/28 08:12:11;;;;;;;8.13;6.90;;;4.50;97.20;;;;;;1708350;29;20991;-73
2022/01/28 08:13:03;;;;;;;8.65;6.95;;;4.50;97.20;;;;;;1708383;29;20230;-73
2022/01/28 08:13:56;;;;;;;9.30;7.38;;;4.60;97.20;;;;;;1708376;29;20230;-73
2022/01/28 08:14:46;;;;;;;9.02;6.47;;;4.60;97.20;;;;;;1708359;29;20245;-72
2022/01/28 08:15:40;;;;;;;9.03;7.17;;;4.60;97.20;;;;;;1708102;28;20230;-73
2022/01/28 08:16:30;;;;;;;9.25;7.20;;;4.70;97.20;;;;;;1708346;29;20257;-73
2022/01/28 08:17:22;;;;;;;8.50;6.73;;;4.70;97.20;;;;;;1708441;29;20275;-73
2022/01/28 08:18:13;;;;;;;11.32;7.28;;;4.70;97.20;;;;;;1707993;29;20258;-73
2022/01/28 08:19:05;;;;;;;9.50;7.47;;;4.70;97.20;;;;;;1708256;29;20210;-73
2022/01/28 08:19:57;;;;;;;8.45;7.55;;;4.80;97.20;;;;;;1708306;28;20560;-73
2022/01/28 08:20:48;;;;;;;8.23;7.03;;;4.80;97.20;;;;;;1708323;29;20233;-73
2022/01/28 08:21:39;;;;;;;9.25;7.03;;;4.80;97.20;;;;;;1708296;29;20234;-72
2022/01/28 08:22:31;;;;;;;7.63;6.80;;;4.80;97.20;;;;;;1708369;29;20210;-73
2022/01/28 08:23:23;;;;;;;7.93;6.40;;;4.90;97.20;;;;;;1708377;28;20209;-73
2022/01/28 08:24:13;;;;;;;10.88;7.57;;;4.90;97.20;;;;;;1708246;29;20213;-72
2022/01/28 08:25:06;;;;;;;9.83;5.93;;;4.90;97.20;;;;;;1708281;29;20208;-73
2022/01/28 08:25:57;;;;;;;6.75;6.05;;;4.90;97.20;;;;;;1708324;28;20222;-73
2022/01/28 08:26:49;;;;;;;9.10;5.93;;;4.90;97.20;;;;;;1708351;29;20204;-73
2022/01/28 08:27:42;;;;;;;10.57;6.88;;;4.90;97.20;;;;;;1707989;29;20294;-73
2022/01/28 08:28:34;;;;;;;12.55;6.50;;;4.90;97.20;;;;;;1708160;28;20205;-72
2022/01/28 08:29:24;;;;;;;7.25;6.10;;;4.90;97.20;;;;;;1708247;29;20588;-73
2022/01/28 08:30:18;;;;;;;7.80;6.17;;;4.90;97.20;;;;;;1708261;29;20199;-73
2022/01/28 08:31:10;;;;;;;8.13;6.90;;;4.90;97.20;;;;;;1708288;28;20660;-72
2022/01/28 08:32:01;;;;;;;6.95;5.80;;;4.90;97.20;;;;;;1708007;29;20558;-73
2022/01/28 08:32:53;;;;;;;9.50;5.90;;;5.00;97.20;;;;;;1708199;29;20671;-72
2022/01/28 08:33:44;;;;;;;8.93;5.78;;;5.00;97.20;;;;;;1708223;29;20699;-73
2022/01/28 08:34:36;;;;;;;8.47;6.40;;;5.00;97.20;;;;;;1708267;28;20542;-72
2022/01/28 08:35:30;;;;;;;7.90;6.30;;;5.00;97.20;;;;;;1708255;29;20206;-73
2022/01/28 08:36:22;;;;;;;8.00;6.18;;;5.00;97.20;;;;;;1708230;29;20314;-72
2022/01/28 08:37:12;;;;;;;8.18;5.88;;;5.00;97.20;;;;;;1708143;29;20206;-73
2022/01/28 08:38:13;;;;;;;9.23;5.27;;;5.00;97.20;;;;;;1707959;29;20199;-72
2022/01/28 08:39:06;;;;;;;7.78;5.97;;;5.10;97.20;;;;;;1708209;29;20265;-73
2022/01/28 08:39:57;;;;;;;9.18;5.80;;;5.10;97.20;;;;;;1708283;29;20223;-73
2022/01/28 08:40:48;;;;;;;8.07;6.10;;;5.10;97.20;;;;;;1708099;29;20281;-73
2022/01/28 08:41:42;;;;;;;6.78;6.05;;;5.10;97.20;;;;;;1707967;29;20446;-73
2022/01/28 08:42:33;;;;;;;6.50;5.78;;;5.20;97.20;;;;;;1707825;28;20269;-72
2022/01/28 08:43:25;;;;;;;7.50;5.57;;;5.20;97.20;;;;;;1707918;29;20230;-73
2022/01/28 08:44:17;;;;;;;6.95;5.72;;;5.20;97.20;;;;;;1708226;28;20213;-73
2022/01/28 08:45:10;;;;;;;6.90;5.00;;;5.20;97.20;;;;;;1708193;29;20697;-72
2022/01/28 08:46:02;;;;;;;7.65;6.30;;;5.30;97.20;;;;;;1708144;28;20222;-73
2022/01/28 08:46:53;;;;;;;7.38;5.30;;;5.30;97.20;;;;;;1708103;29;20206;-72
2022/01/28 08:47:45;;;;;;;6.40;5.60;;;5.30;97.20;;;;;;1707531;29;20281;-73
2022/01/28 08:48:37;;;;;;;6.10;5.50;;;5.40;97.20;;;;;;1708061;29;20229;-73
2022/01/28 08:49:27;;;;;;;8.73;5.88;;;5.40;97.20;;;;;;1708163;29;20634;-72
2022/01/28 08:50:20;;;;;;;7.57;6.03;;;5.40;97.20;;;;;;1708146;29;20569;-73
2022/01/28 08:51:12;;;;;;;7.18;5.35;;;5.40;97.20;;;;;;1708066;29;20202;-73
2022/01/28 08:52:04;;;;;;;8.27;5.90;;;5.40;97.20;;;;;;1708149;29;20206;-73
2022/01/28 08:52:55;;;;;;;7.93;5.63;;;5.40;97.20;;;;;;1708171;28;20720;-73
2022/01/28 08:53:47;;;;;;;7.87;5.27;;;5.50;97.20;;;;;;1708242;29;20604;-73
2022/01/28 08:54:38;;;;;;;6.90;5.35;;;5.50;97.20;;;;;;1708135;29;20234;-72
2022/01/28 08:55:29;;;;;;;8.10;5.53;;;5.50;97.20;;;;;;1708165;28;20209;-73
2022/01/28 08:56:20;;;;;;;8.85;5.80;;;5.50;97.20;;;;;;1707956;29;20502;-73
2022/01/28 08:57:12;;;;;;;7.30;6.00;;;5.50;97.20;;;;;;1708057;29;20213;-73
2022/01/28 08:58:03;;;;;;;10.20;6.22;;;5.50;97.20;;;;;;1707714;29;20203;-72
2022/01/28 08:58:55;;;;;;;6.73;6.03;;;5.50;97.20;;;;;;1707998;29;20209;-72
2022/01/28 08:59:45;;;;;;;7.93;5.30;;;5.40;97.20;;;;;;1708105;29;20198;-73
2022/01/28 09:00:37;;;;;;;8.93;6.20;;;5.40;97.20;;;;;;1708266;28;20203;-73
2022/01/28 09:01:29;;;;;;;6.20;5.07;;;5.40;97.20;;;;;;1708013;29;20230;-72
2022/01/28 09:02:21;;;;;;;6.22;5.63;;;5.40;97.20;;;;;;1708155;29;20237;-73
2022/01/28 09:03:16;;;;;;;7.20;5.40;;;5.40;97.20;;;;;;1708006;29;20207;-72
2022/01/28 09:04:08;;;;;;;6.43;5.57;;;5.40;97.20;;;;;;1707763;29;20315;-73
2022/01/28 09:04:58;;;;;;;7.03;6.07;;;5.40;97.20;;;;;;1708068;29;20209;-73
2022/01/28 09:05:51;;;;;;;7.20;5.20;;;5.40;97.20;;;;;;1708003;28;20199;-73
2022/01/28 09:06:43;;;;;;;8.25;5.97;;;5.40;97.20;;;;;;1708117;28;20206;-72
2022/01/28 09:07:35;;;;;;;5.78;5.18;;;5.40;97.20;;;;;;1707905;29;20736;-72
2022/01/28 09:08:26;;;;;;;6.55;5.20;;;5.50;97.20;;;;;;1707993;29;20202;-73
2022/01/28 09:09:19;;;;;;;8.50;6.20;;;5.50;97.20;;;;;;1707971;29;20203;-73
2022/01/28 09:10:13;;;;;;;7.72;5.47;;;5.50;97.20;;;;;;1708053;29;20317;-73
2022/01/28 09:11:30;;;;;;;7.97;5.88;;;5.50;97.20;;;;;;1708094;29;20230;-73
2022/01/28 09:12:34;;;;;;;9.98;5.93;;;5.50;97.20;;;;;;1707848;29;20238;-73
2022/01/28 09:13:29;;;;;;;7.07;6.15;;;5.50;97.20;;;;;;1708164;29;20211;-72
2022/01/28 09:14:21;;;;;;;6.57;5.97;;;5.50;97.20;;;;;;1708063;29;20221;-72
2022/01/28 09:15:13;;;;;;;7.68;6.07;;;5.50;97.20;;;;;;1708044;29;20562;-73
2022/01/28 09:16:05;;;;;;;6.80;6.10;;;5.50;97.20;;;;;;1707872;28;20784;-72
2022/01/28 09:16:56;;;;;;;7.40;5.55;;;5.50;97.20;;;;;;1708072;28;20199;-72
2022/01/28 09:17:48;;;;;;;8.20;5.88;;;5.50;97.20;;;;;;1707728;29;20198;-73
2022/01/28 09:18:39;;;;;;;9.13;6.03;;;5.50;97.20;;;;;;1707954;29;20215;-73
2022/01/28 09:19:31;;;;;;;7.07;5.97;;;5.50;97.20;;;;;;1707634;29;20265;-73
2022/01/28 09:20:22;;;;;;;6.95;5.70;;;5.50;97.20;;;;;;1707830;29;20198;-73
2022/01/28 09:21:13;;;;;;;9.93;6.40;;;5.50;97.20;;;;;;1707874;29;20199;-73
2022/01/28 09:22:06;;;;;;;8.55;5.47;;;5.60;97.20;;;;;;1707998;29;20210;-72
2022/01/28 09:22:58;;;;;;;6.90;5.63;;;5.60;97.20;;;;;;1707949;29;20572;-73
2022/01/28 09:23:50;;;;;;;8.10;5.95;;;5.60;97.20;;;;;;1707931;28;20206;-73
2022/01/28 09:24:41;;;;;;;6.43;4.90;;;5.70;97.20;;;;;;1707887;29;20238;-73
2022/01/28 09:25:34;;;;;;;6.53;5.30;;;5.70;97.20;;;;;;1707907;29;20209;-73
2022/01/28 09:26:24;;;;;;;6.28;5.25;;;5.70;97.20;;;;;;1707889;29;20320;-72
2022/01/28 09:27:16;;;;;;;7.67;5.87;;;5.70;97.20;;;;;;1707832;29;20206;-73
2022/01/28 09:28:07;;;;;;;6.78;5.93;;;5.70;97.20;;;;;;1707577;29;20250;-73
2022/01/28 09:28:59;;;;;;;7.15;5.38;;;5.70;97.20;;;;;;1707875;29;20282;-73
2022/01/28 09:29:50;;;;;;;8.82;5.43;;;5.70;97.20;;;;;;1707907;29;20234;-73
2022/01/28 09:30:41;;;;;;;7.97;5.30;;;5.70;97.20;;;;;;1707854;29;20207;-72
2022/01/28 09:31:32;;;;;;;8.20;5.25;;;5.80;97.20;;;;;;1707899;29;20237;-73
2022/01/28 09:32:24;;;;;;;7.97;6.07;;;5.80;97.20;;;;;;1707945;29;20210;-73
2022/01/28 09:33:15;;;;;;;7.10;5.40;;;5.80;97.20;;;;;;1707844;29;20686;-73
2022/01/28 09:34:07;;;;;;;5.70;5.15;;;5.80;97.20;;;;;;1707892;28;20571;-73
2022/01/28 09:34:57;;;;;;;7.30;5.47;;;5.80;97.20;;;;;;1707769;29;20202;-72
2022/01/28 09:35:49;;;;;;;9.03;5.50;;;5.80;97.20;;;;;;1707520;29;20195;-73
2022/01/28 09:36:41;;;;;;;6.00;5.40;;;5.80;97.20;;;;;;1707910;29;20207;-73
2022/01/28 09:37:34;;;;;;;8.02;5.07;;;5.80;97.20;;;;;;1707792;29;20229;-73
2022/01/28 09:38:25;;;;;;;9.20;5.65;;;5.80;97.20;;;;;;1707809;29;20210;-73
2022/01/28 09:39:17;;;;;;;8.70;5.35;;;5.80;97.20;;;;;;1707791;29;20229;-73
2022/01/28 09:40:10;;;;;;;7.97;5.55;;;5.80;97.20;;;;;;1707836;29;20680;-73
2022/01/28 09:41:04;;;;;;;7.80;5.32;;;5.90;97.20;;;;;;1707896;28;20591;-72
2022/01/28 09:42:00;;;;;;;7.65;5.20;;;5.90;97.20;;;;;;1707755;29;20218;-72
2022/01/28 09:42:53;;;;;;;7.63;5.35;;;5.90;97.20;;;;;;1707869;29;20289;-72
2022/01/28 09:43:45;;;;;;;7.75;4.75;;;5.90;97.20;;;;;;1707828;28;20214;-73
2022/01/28 09:44:38;;;;;;;8.90;4.95;;;5.90;97.20;;;;;;1707815;29;20206;-73
2022/01/28 09:45:29;;;;;;;6.38;5.05;;;6.00;97.20;;;;;;1707802;29;20589;-73
2022/01/28 09:46:21;;;;;;;6.90;4.73;;;6.00;97.20;;;;;;1707802;29;20560;-73
2022/01/28 09:47:12;;;;;;;6.10;4.85;;;6.10;97.20;;;;;;1707797;29;20214;-73
2022/01/28 09:48:05;;;;;;;6.70;5.23;;;6.10;97.20;;;;;;1707487;29;20205;-73
2022/01/28 09:48:57;;;;;;;8.82;5.80;;;6.10;97.20;;;;;;1707699;28;20471;-73
2022/01/28 09:49:48;;;;;;;7.15;5.40;;;6.20;97.20;;;;;;1707809;28;20206;-72
2022/01/28 09:50:40;;;;;;;6.73;5.40;;;6.20;97.20;;;;;;1707781;29;20191;-73
2022/01/28 09:51:31;;;;;;;7.05;5.10;;;6.20;97.20;;;;;;1707518;29;20454;-73
2022/01/28 09:52:22;;;;;;;7.20;5.43;;;6.20;97.20;;;;;;1707745;29;20265;-72
2022/01/28 09:53:17;;;;;;;6.53;5.28;;;6.30;97.20;;;;;;1707716;29;20207;-73
2022/01/28 09:54:09;;;;;;;9.35;5.97;;;6.30;97.20;;;;;;1707507;28;20211;-72
2022/01/28 09:55:01;;;;;;;7.85;5.47;;;6.40;97.20;;;;;;1707116;29;20577;-73
2022/01/28 09:55:53;;;;;;;7.05;5.55;;;6.40;97.20;;;;;;1707664;28;20669;-72
2022/01/28 09:56:43;;;;;;;8.15;5.18;;;6.40;97.20;;;;;;1707707;29;20210;-72
2022/01/28 09:57:35;;;;;;;6.77;5.30;;;6.40;97.20;;;;;;1707482;29;20282;-72
2022/01/28 09:58:27;;;;;;;7.57;5.35;;;6.40;97.20;;;;;;1707713;29;20214;-72
2022/01/28 09:59:17;;;;;;;14.45;5.53;;;6.50;97.20;;;;;;1707670;29;20214;-73
2022/01/28 10:00:11;;;;;;;8.70;5.30;;;6.50;97.20;;;;;;1707777;29;20281;-73
2022/01/28 10:01:02;;;;;;;8.45;4.80;;;6.60;97.20;;;;;;1707713;28;20249;-73
2022/01/28 10:01:55;;;;;;;7.10;4.95;;;6.70;97.20;;;;;;1707585;29;20226;-72
2022/01/28 10:02:52;;;;;;;6.22;4.57;;;6.70;97.20;;;;;;1707737;29;20686;-72
2022/01/28 10:03:43;;;;;;;8.27;5.80;;;6.70;97.20;;;;;;1707792;29;20697;-73
2022/01/28 10:04:34;;;;;;;7.10;4.30;;;6.80;97.20;;;;;;1707663;29;20243;-73
2022/01/28 10:05:28;;;;;;;6.10;4.83;;;6.80;97.20;;;;;;1707735;28;20202;-73
2022/01/28 10:06:30;;;;;;;7.70;4.80;;;6.90;97.20;;;;;;1707511;29;20238;-73
2022/01/28 10:07:22;;;;;;;5.88;3.88;;;6.90;97.20;;;;;;1707684;29;20276;-73
2022/01/28 10:08:16;;;;;;;5.57;4.00;;;6.90;97.20;;;;;;1706872;29;20641;-73
2022/01/28 10:09:09;;;;;;;5.78;4.00;;;6.90;97.20;;;;;;1707653;28;20214;-73
2022/01/28 10:10:00;;;;;;;6.78;4.45;;;6.90;97.20;;;;;;1707669;29;20214;-73
2022/01/28 10:11:01;;;;;;;6.65;4.63;;;6.90;97.20;;;;;;1707517;28;20250;-73
2022/01/28 10:11:55;;;;;;;4.47;3.72;;;7.00;97.20;;;;;;1707637;29;20264;-72
2022/01/28 10:12:51;;;;;;;4.97;4.32;;;7.00;97.20;;;;;;1707640;29;20206;-73
2022/01/28 10:13:49;;;;;;;4.97;3.45;;;7.00;97.20;;;;;;1707753;29;20210;-73
2022/01/28 10:15:02;;;;;;;7.38;5.00;;;7.00;97.20;;;;;;1707735;29;20587;-72
2022/01/28 10:16:05;;;;;;;7.45;4.32;;;7.00;97.20;;;;;;1707478;28;20572;-73
2022/01/28 10:16:59;;;;;;;9.43;4.95;;;7.00;97.20;;;;;;1707665;29;20223;-72
2022/01/28 10:17:51;;;;;;;6.18;4.13;;;6.90;97.20;;;;;;1707352;29;20203;-73
2022/01/28 10:18:53;;;;;;;7.20;4.18;;;6.90;97.20;;;;;;1707510;29;20274;-73
2022/01/28 10:19:45;;;;;;;4.90;3.90;;;6.90;97.20;;;;;;1707629;29;20206;-73
2022/01/28 10:20:44;;;;;;;7.07;4.45;;;6.90;97.20;;;;;;1707680;29;20203;-73
2022/01/28 10:21:38;;;;;;;8.80;4.50;;;6.90;97.20;;;;;;1707277;29;20686;-73
2022/01/28 10:22:32;;;;;;;5.15;3.42;;;6.90;97.20;;;;;;1707553;29;20714;-72
2022/01/28 10:23:25;;;;;;;7.07;4.68;;;6.80;97.20;;;;;;1707614;29;20265;-73
2022/01/28 10:24:18;;;;;;;8.63;4.13;;;6.80;97.20;;;;;;1707535;29;20234;-73
2022/01/28 10:25:22;;;;;;;5.43;3.60;;;6.80;97.20;;;;;;1707621;28;20704;-73
2022/01/28 10:26:13;;;;;;;4.45;3.40;;;6.80;97.20;;;;;;1707445;28;20242;-72
2022/01/28 10:27:06;;;;;;;5.97;3.40;;;6.80;97.20;;;;;;1707588;29;20287;-73
2022/01/28 10:27:59;;;;;;;5.15;3.80;;;6.80;97.20;;;;;;1707251;29;20202;-73
2022/01/28 10:28:52;;;;;;;8.13;3.67;;;6.80;97.20;;;;;;1707408;29;20203;-72
2022/01/28 10:29:45;;;;;;;6.00;3.50;;;6.80;97.20;;;;;;1707580;29;20282;-72
2022/01/28 10:30:38;;;;;;;6.80;3.60;;;6.80;97.20;;;;;;1707223;28;20198;-73
2022/01/28 10:31:40;;;;;;;6.03;3.70;;;6.80;97.20;;;;;;1707502;29;20206;-72
2022/01/28 10:32:32;;;;;;;6.65;3.28;;;6.80;97.20;;;;;;1707587;28;20651;-72
2022/01/28 10:33:24;;;;;;;7.15;3.70;;;6.90;97.20;;;;;;1707535;29;20218;-73
2022/01/28 10:34:19;;;;;;;6.20;3.40;;;6.90;97.20;;;;;;1707467;29;20211;-73
2022/01/28 10:35:10;;;;;;;8.10;3.38;;;6.90;97.20;;;;;;1707455;29;20210;-72